Glen Rose, TX (76043)

2:52 AM CDT on August 31, 2014 (GMT -0500)
Opossum Hollow | Change Station
CLOSE
Current Station
Personal Weather Station
Location: Glen Rose, TX
Elevation: 771 ft
Nearby Weather Stations

Elev 771 ft 32.25 °N, 97.83 °W | Updated 1 second ago

Clear
Clear
72.9 °F
Feels Like 71 °F
N
0.0
Wind Variable Wind from ESE
Gusts 0.0 mph

Today
High -- | Low -- °F
--% Chance of Precip.
Yesterday
High -- | Low -- °F
Precip. -- in
7:05 AM 7:56 PM
Waxing Crescent, 28% visible
Pressure 29.93 in
Visibility 10.0 miles
Clouds Clear
Heat Index 71 °F
Dew Point 69 °F
Humidity 87%
Rainfall 0.00 in
Snow Depth Not available.
UV 0 out of 12
Pollen 9.60 out of 12
Ozone Good
PM2.5 Moderate
Flu Activity Not available.
METAR KGDJ 310735Z AUTO 11005KT 10SM CLR 26/21 A2993 RMK AO2 T02630206

More Conditions Fewer Conditions

Pressure 29.93 in
Visibility 10.0 miles
Clouds Clear
Heat Index 71 °F
Dew Point 69 °F
Humidity 87%
Rainfall 0.00 in
Snow Depth Not available.
UV 0 out of 12
Pollen 9.60 out of 12
Ozone Good
PM2.5 Moderate
Flu Activity Not available.
METAR KGDJ 310735Z AUTO 11005KT 10SM CLR 26/21 A2993 RMK AO2 T02630206

More Conditions Fewer Conditions

10-Day Weather Forecast

Almanac

Astronomy

Aug. 31, 2014 Rise Set
Actual Time 7:05 AM CDT 7:56 PM CDT
Civil Twilight 6:40 AM CDT 8:21 PM CDT
Nautical Twilight 6:10 AM CDT 8:50 PM CDT
Astronomical Twilight 5:40 AM CDT 9:21 PM CDT
Moon 12:32 PM CDT 11:34 PM CDT
Length of Visible Light 13h 40m
Length of Day
12h 50m
Tomorrow will be 1m 53s shorter.
Waxing Crescent, 28% of the Moon is Illuminated
Today
Waxing Crescent
Sep 2
First Quarter
Sep 8
Full
Sep 15
Last Quarter
Sep 24
New

Today's Extremes

State Highs State Lows

Community

WunderPhotos

Upload Photos

1,748,809 photos uploaded!

Nearby

Air Quality

  Air Quality AQ Index Pollutant
Yesterday Moderate
OZONE
Yesterday Good
PM2.5
Current Moderate
PM2.5
Current Good
OZONE
Sunday Good
OZONE
Sunday Good
PM10
Monday Good
OZONE
Monday Good
PM10
Tuesday Good
OZONE
Tuesday Good
PM10

Snow Depth

Station Depth Elevation
No new snow has been reported.

Earthquake Activity

City Distance Mag. Time & Date
No recent earthquake activity has been reported nearby.
Minimum magnitude displayed is 2.5.

Coastal Water Temperatures

Place Temperature
No Stations Reporting

Nearby Weather Stations